Terminal Aerodrome Forecast
Issued by NWS

Home | Current Version | Previous Version | Text Only | Print | Product List | Glossary On
Versions: 1 2 3 4 5 6 7 8 9 10 11 12 13 14 15 16 17 18 19 20 21
000
FTUS43 KICT 151722
TAFCNU
TAF
KCNU 151722Z 1518/1618 16007KT P6SM BKN015
     FM151900 16010KT P6SM SCT035
     FM152100 14005KT P6SM VCTS SCT070CB BKN250
     FM160300 14005KT P6SM SCT080 BKN250
     FM161100 17006KT P6SM BKN100=

USA.gov is the U.S. government's official web portal to all federal, state and local government web resources and services.